sensor_id;sensor_type;location;lat;lon;timestamp;P1;durP1;ratioP1;P2;durP2;ratioP2
44862;SDS011;30597;49.628;10.850;2022-12-01T00:02:04;8.80;;;7.20;;
44862;SDS011;30597;49.628;10.850;2022-12-01T00:04:30;9.07;;;8.17;;
44862;SDS011;30597;49.628;10.850;2022-12-01T00:06:55;7.80;;;7.10;;
44862;SDS011;30597;49.628;10.850;2022-12-01T00:09:21;10.27;;;7.93;;
44862;SDS011;30597;49.628;10.850;2022-12-01T00:12:04;9.07;;;6.70;;
44862;SDS011;30597;49.628;10.850;2022-12-01T00:14:30;9.17;;;7.90;;
44862;SDS011;30597;49.628;10.850;2022-12-01T00:16:56;7.90;;;7.10;;
44862;SDS011;30597;49.628;10.850;2022-12-01T00:19:25;7.37;;;6.70;;
44862;SDS011;30597;49.628;10.850;2022-12-01T00:21:51;7.80;;;7.00;;
44862;SDS011;30597;49.628;10.850;2022-12-01T00:24:17;8.10;;;7.27;;
44862;SDS011;30597;49.628;10.850;2022-12-01T00:26:43;8.10;;;7.30;;
44862;SDS011;30597;49.628;10.850;2022-12-01T00:29:08;7.57;;;6.87;;
44862;SDS011;30597;49.628;10.850;2022-12-01T00:31:34;7.70;;;6.90;;
44862;SDS011;30597;49.628;10.850;2022-12-01T00:34:00;7.57;;;6.90;;
44862;SDS011;30597;49.628;10.850;2022-12-01T00:36:25;9.50;;;7.30;;
44862;SDS011;30597;49.628;10.850;2022-12-01T00:38:51;7.30;;;6.60;;
44862;SDS011;30597;49.628;10.850;2022-12-01T00:41:18;7.57;;;6.90;;
44862;SDS011;30597;49.628;10.850;2022-12-01T00:43:44;7.97;;;7.17;;
44862;SDS011;30597;49.628;10.850;2022-12-01T00:46:11;8.63;;;7.70;;
44862;SDS011;30597;49.628;10.850;2022-12-01T00:48:36;7.37;;;6.60;;
44862;SDS011;30597;49.628;10.850;2022-12-01T00:51:02;8.50;;;7.00;;
44862;SDS011;30597;49.628;10.850;2022-12-01T00:53:28;8.60;;;6.87;;
44862;SDS011;30597;49.628;10.850;2022-12-01T00:55:54;6.60;;;6.00;;
44862;SDS011;30597;49.628;10.850;2022-12-01T00:58:21;8.27;;;7.20;;
44862;SDS011;30597;49.628;10.850;2022-12-01T01:00:47;8.07;;;7.27;;
44862;SDS011;30597;49.628;10.850;2022-12-01T01:03:12;7.10;;;6.40;;
44862;SDS011;30597;49.628;10.850;2022-12-01T01:05:38;7.23;;;6.53;;
44862;SDS011;30597;49.628;10.850;2022-12-01T01:08:06;7.00;;;6.30;;
44862;SDS011;30597;49.628;10.850;2022-12-01T01:10:32;7.60;;;6.80;;
44862;SDS011;30597;49.628;10.850;2022-12-01T01:12:58;7.03;;;6.40;;
44862;SDS011;30597;49.628;10.850;2022-12-01T01:15:23;7.27;;;6.50;;
44862;SDS011;30597;49.628;10.850;2022-12-01T01:17:49;6.70;;;6.10;;
44862;SDS011;30597;49.628;10.850;2022-12-01T01:20:14;6.80;;;6.10;;
44862;SDS011;30597;49.628;10.850;2022-12-01T01:22:40;6.20;;;5.47;;
44862;SDS011;30597;49.628;10.850;2022-12-01T01:25:06;6.30;;;5.70;;
44862;SDS011;30597;49.628;10.850;2022-12-01T01:27:32;7.50;;;6.80;;
44862;SDS011;30597;49.628;10.850;2022-12-01T01:29:58;7.27;;;6.57;;
44862;SDS011;30597;49.628;10.850;2022-12-01T01:32:24;6.97;;;6.30;;
44862;SDS011;30597;49.628;10.850;2022-12-01T01:34:49;5.77;;;5.17;;
44862;SDS011;30597;49.628;10.850;2022-12-01T01:37:15;7.13;;;6.43;;
44862;SDS011;30597;49.628;10.850;2022-12-01T01:39:40;5.57;;;5.07;;
44862;SDS011;30597;49.628;10.850;2022-12-01T01:42:08;6.17;;;5.57;;
44862;SDS011;30597;49.628;10.850;2022-12-01T01:44:47;8.20;;;6.63;;
44862;SDS011;30597;49.628;10.850;2022-12-01T01:49:52;6.80;;;6.10;;
44862;SDS011;30597;49.628;10.850;2022-12-01T01:52:20;7.03;;;6.23;;
44862;SDS011;30597;49.628;10.850;2022-12-01T01:54:48;6.80;;;6.00;;
44862;SDS011;30597;49.628;10.850;2022-12-01T01:57:18;5.57;;;5.07;;
44862;SDS011;30597;49.628;10.850;2022-12-01T02:00:11;6.00;;;5.40;;
44862;SDS011;30597;49.628;10.850;2022-12-01T02:02:41;6.20;;;5.60;;
44862;SDS011;30597;49.628;10.850;2022-12-01T02:05:08;6.27;;;5.67;;
44862;SDS011;30597;49.628;10.850;2022-12-01T02:07:37;6.50;;;5.90;;
44862;SDS011;30597;49.628;10.850;2022-12-01T02:10:04;6.30;;;5.70;;
44862;SDS011;30597;49.628;10.850;2022-12-01T02:31:46;5.23;;;4.73;;
44862;SDS011;30597;49.628;10.850;2022-12-01T02:34:34;6.00;;;5.50;;
44862;SDS011;30597;49.628;10.850;2022-12-01T02:37:46;6.47;;;5.60;;
44862;SDS011;30597;49.628;10.850;2022-12-01T02:40:13;6.13;;;5.63;;
44862;SDS011;30597;49.628;10.850;2022-12-01T02:43:00;5.20;;;4.63;;
44862;SDS011;30597;49.628;10.850;2022-12-01T02:50:52;6.00;;;5.30;;
44862;SDS011;30597;49.628;10.850;2022-12-01T02:53:21;6.43;;;5.83;;
44862;SDS011;30597;49.628;10.850;2022-12-01T02:55:47;4.73;;;4.33;;
44862;SDS011;30597;49.628;10.850;2022-12-01T02:58:17;5.70;;;4.80;;
44862;SDS011;30597;49.628;10.850;2022-12-01T03:03:58;6.70;;;5.97;;
44862;SDS011;30597;49.628;10.850;2022-12-01T03:06:35;5.77;;;5.17;;
44862;SDS011;30597;49.628;10.850;2022-12-01T03:09:19;6.07;;;5.47;;
44862;SDS011;30597;49.628;10.850;2022-12-01T03:12:03;5.17;;;4.67;;
44862;SDS011;30597;49.628;10.850;2022-12-01T03:14:50;5.50;;;5.00;;
44862;SDS011;30597;49.628;10.850;2022-12-01T03:17:26;6.03;;;5.50;;
44862;SDS011;30597;49.628;10.850;2022-12-01T03:20:00;5.30;;;4.80;;
44862;SDS011;30597;49.628;10.850;2022-12-01T03:22:35;5.23;;;4.67;;
44862;SDS011;30597;49.628;10.850;2022-12-01T03:25:10;4.90;;;4.40;;
44862;SDS011;30597;49.628;10.850;2022-12-01T03:27:38;5.67;;;5.10;;
44862;SDS011;30597;49.628;10.850;2022-12-01T03:30:07;5.93;;;5.37;;
44862;SDS011;30597;49.628;10.850;2022-12-01T03:32:40;5.00;;;4.50;;
44862;SDS011;30597;49.628;10.850;2022-12-01T03:35:25;6.13;;;5.53;;
44862;SDS011;30597;49.628;10.850;2022-12-01T03:37:59;5.07;;;4.57;;
44862;SDS011;30597;49.628;10.850;2022-12-01T03:40:29;5.10;;;4.60;;
44862;SDS011;30597;49.628;10.850;2022-12-01T03:42:58;5.47;;;4.83;;
44862;SDS011;30597;49.628;10.850;2022-12-01T03:45:52;5.80;;;5.20;;
44862;SDS011;30597;49.628;10.850;2022-12-01T03:48:15;5.37;;;4.80;;
44862;SDS011;30597;49.628;10.850;2022-12-01T03:50:52;5.30;;;4.80;;
44862;SDS011;30597;49.628;10.850;2022-12-01T03:53:21;5.00;;;4.50;;
44862;SDS011;30597;49.628;10.850;2022-12-01T03:55:53;5.47;;;4.90;;
44862;SDS011;30597;49.628;10.850;2022-12-01T03:58:24;5.93;;;4.97;;
44862;SDS011;30597;49.628;10.850;2022-12-01T04:00:56;5.43;;;4.70;;
44862;SDS011;30597;49.628;10.850;2022-12-01T04:03:23;5.53;;;5.03;;
44862;SDS011;30597;49.628;10.850;2022-12-01T04:05:50;5.00;;;4.50;;
44862;SDS011;30597;49.628;10.850;2022-12-01T04:08:15;4.80;;;4.30;;
44862;SDS011;30597;49.628;10.850;2022-12-01T04:10:41;5.27;;;4.77;;
44862;SDS011;30597;49.628;10.850;2022-12-01T04:13:07;5.30;;;4.80;;
44862;SDS011;30597;49.628;10.850;2022-12-01T04:15:40;4.63;;;4.23;;
44862;SDS011;30597;49.628;10.850;2022-12-01T04:18:07;4.80;;;3.90;;
44862;SDS011;30597;49.628;10.850;2022-12-01T04:20:32;4.00;;;3.60;;
44862;SDS011;30597;49.628;10.850;2022-12-01T04:22:58;4.63;;;4.23;;
44862;SDS011;30597;49.628;10.850;2022-12-01T04:25:23;4.43;;;4.03;;
44862;SDS011;30597;49.628;10.850;2022-12-01T04:27:49;4.80;;;4.30;;
44862;SDS011;30597;49.628;10.850;2022-12-01T04:30:14;4.57;;;4.13;;
44862;SDS011;30597;49.628;10.850;2022-12-01T04:32:41;4.27;;;3.87;;
44862;SDS011;30597;49.628;10.850;2022-12-01T04:35:07;4.30;;;3.90;;
44862;SDS011;30597;49.628;10.850;2022-12-01T04:37:34;5.40;;;4.93;;
44862;SDS011;30597;49.628;10.850;2022-12-01T04:40:00;5.27;;;4.33;;
44862;SDS011;30597;49.628;10.850;2022-12-01T04:42:25;4.90;;;4.13;;
44862;SDS011;30597;49.628;10.850;2022-12-01T04:44:51;4.40;;;4.00;;
44862;SDS011;30597;49.628;10.850;2022-12-01T04:47:16;5.30;;;4.80;;
44862;SDS011;30597;49.628;10.850;2022-12-01T04:49:42;4.60;;;4.20;;
44862;SDS011;30597;49.628;10.850;2022-12-01T04:52:07;4.53;;;4.13;;
44862;SDS011;30597;49.628;10.850;2022-12-01T04:54:33;4.17;;;3.67;;
44862;SDS011;30597;49.628;10.850;2022-12-01T04:56:59;5.07;;;4.53;;
44862;SDS011;30597;49.628;10.850;2022-12-01T04:59:24;4.47;;;4.07;;
44862;SDS011;30597;49.628;10.850;2022-12-01T05:01:50;4.13;;;3.70;;
44862;SDS011;30597;49.628;10.850;2022-12-01T05:04:15;5.50;;;4.70;;
44862;SDS011;30597;49.628;10.850;2022-12-01T05:06:41;3.60;;;3.30;;
44862;SDS011;30597;49.628;10.850;2022-12-01T05:09:09;5.00;;;4.27;;
44862;SDS011;30597;49.628;10.850;2022-12-01T05:11:37;3.93;;;3.60;;
44862;SDS011;30597;49.628;10.850;2022-12-01T05:14:03;4.00;;;3.70;;
44862;SDS011;30597;49.628;10.850;2022-12-01T05:16:30;3.63;;;3.33;;
44862;SDS011;30597;49.628;10.850;2022-12-01T05:18:57;4.10;;;3.50;;
44862;SDS011;30597;49.628;10.850;2022-12-01T05:21:43;3.53;;;3.23;;
44862;SDS011;30597;49.628;10.850;2022-12-01T05:24:10;4.30;;;3.80;;
44862;SDS011;30597;49.628;10.850;2022-12-01T05:26:36;3.73;;;3.43;;
44862;SDS011;30597;49.628;10.850;2022-12-01T05:29:02;3.57;;;3.27;;
44862;SDS011;30597;49.628;10.850;2022-12-01T05:31:28;4.17;;;3.77;;
44862;SDS011;30597;49.628;10.850;2022-12-01T05:33:55;4.27;;;3.40;;
44862;SDS011;30597;49.628;10.850;2022-12-01T05:36:20;3.67;;;3.37;;
44862;SDS011;30597;49.628;10.850;2022-12-01T05:38:46;5.73;;;4.13;;
44862;SDS011;30597;49.628;10.850;2022-12-01T05:41:12;4.73;;;3.83;;
44862;SDS011;30597;49.628;10.850;2022-12-01T05:43:37;3.97;;;3.57;;
44862;SDS011;30597;49.628;10.850;2022-12-01T05:46:03;4.23;;;3.83;;
44862;SDS011;30597;49.628;10.850;2022-12-01T05:48:29;3.60;;;3.30;;
44862;SDS011;30597;49.628;10.850;2022-12-01T05:50:55;3.47;;;3.17;;
44862;SDS011;30597;49.628;10.850;2022-12-01T05:53:20;4.03;;;3.63;;
44862;SDS011;30597;49.628;10.850;2022-12-01T05:55:50;3.97;;;3.63;;
44862;SDS011;30597;49.628;10.850;2022-12-01T05:58:17;4.27;;;3.87;;
44862;SDS011;30597;49.628;10.850;2022-12-01T06:00:43;5.10;;;4.20;;
44862;SDS011;30597;49.628;10.850;2022-12-01T06:03:08;4.70;;;4.20;;
44862;SDS011;30597;49.628;10.850;2022-12-01T06:05:34;4.73;;;3.93;;
44862;SDS011;30597;49.628;10.850;2022-12-01T06:07:59;4.30;;;3.70;;
44862;SDS011;30597;49.628;10.850;2022-12-01T06:10:25;6.33;;;4.50;;
44862;SDS011;30597;49.628;10.850;2022-12-01T06:12:50;3.63;;;3.33;;
44862;SDS011;30597;49.628;10.850;2022-12-01T06:15:16;4.63;;;4.00;;
44862;SDS011;30597;49.628;10.850;2022-12-01T06:17:42;3.70;;;3.40;;
44862;SDS011;30597;49.628;10.850;2022-12-01T06:20:08;4.63;;;4.23;;
44862;SDS011;30597;49.628;10.850;2022-12-01T06:22:34;4.57;;;4.07;;
44862;SDS011;30597;49.628;10.850;2022-12-01T06:25:00;4.37;;;3.90;;
44862;SDS011;30597;49.628;10.850;2022-12-01T06:27:25;4.63;;;4.23;;
44862;SDS011;30597;49.628;10.850;2022-12-01T06:29:51;4.33;;;3.93;;
44862;SDS011;30597;49.628;10.850;2022-12-01T06:32:16;5.90;;;5.30;;
44862;SDS011;30597;49.628;10.850;2022-12-01T06:34:42;4.83;;;4.10;;
44862;SDS011;30597;49.628;10.850;2022-12-01T06:37:08;4.53;;;4.10;;
44862;SDS011;30597;49.628;10.850;2022-12-01T06:39:34;5.50;;;4.23;;
44862;SDS011;30597;49.628;10.850;2022-12-01T06:42:00;4.13;;;3.60;;
44862;SDS011;30597;49.628;10.850;2022-12-01T06:44:25;5.73;;;5.17;;
44862;SDS011;30597;49.628;10.850;2022-12-01T06:46:51;5.00;;;4.00;;
44862;SDS011;30597;49.628;10.850;2022-12-01T06:49:17;4.90;;;4.40;;
44862;SDS011;30597;49.628;10.850;2022-12-01T06:51:43;5.17;;;4.03;;
44862;SDS011;30597;49.628;10.850;2022-12-01T06:54:10;4.80;;;4.30;;
44862;SDS011;30597;49.628;10.850;2022-12-01T06:56:39;4.30;;;3.90;;
44862;SDS011;30597;49.628;10.850;2022-12-01T06:59:07;5.60;;;4.40;;
44862;SDS011;30597;49.628;10.850;2022-12-01T07:01:32;5.40;;;4.57;;
44862;SDS011;30597;49.628;10.850;2022-12-01T07:03:58;10.13;;;5.40;;
44862;SDS011;30597;49.628;10.850;2022-12-01T07:06:24;6.50;;;4.30;;
44862;SDS011;30597;49.628;10.850;2022-12-01T07:08:49;5.47;;;4.13;;
44862;SDS011;30597;49.628;10.850;2022-12-01T07:11:16;6.13;;;4.97;;
44862;SDS011;30597;49.628;10.850;2022-12-01T07:13:42;8.83;;;4.50;;
44862;SDS011;30597;49.628;10.850;2022-12-01T07:16:11;5.03;;;4.60;;
44862;SDS011;30597;49.628;10.850;2022-12-01T07:18:37;5.60;;;5.00;;
44862;SDS011;30597;49.628;10.850;2022-12-01T07:21:05;6.00;;;4.93;;
44862;SDS011;30597;49.628;10.850;2022-12-01T07:23:32;5.70;;;4.40;;
44862;SDS011;30597;49.628;10.850;2022-12-01T07:26:03;6.30;;;4.90;;
44862;SDS011;30597;49.628;10.850;2022-12-01T07:28:30;8.73;;;5.57;;
44862;SDS011;30597;49.628;10.850;2022-12-01T07:31:15;6.17;;;5.20;;
44862;SDS011;30597;49.628;10.850;2022-12-01T07:33:42;5.60;;;5.10;;
44862;SDS011;30597;49.628;10.850;2022-12-01T07:36:08;7.60;;;5.20;;
44862;SDS011;30597;49.628;10.850;2022-12-01T07:38:35;5.80;;;4.80;;
44862;SDS011;30597;49.628;10.850;2022-12-01T07:41:09;6.77;;;5.17;;
44862;SDS011;30597;49.628;10.850;2022-12-01T07:43:36;5.57;;;5.10;;
44862;SDS011;30597;49.628;10.850;2022-12-01T07:46:09;5.13;;;4.63;;
44862;SDS011;30597;49.628;10.850;2022-12-01T07:48:37;5.60;;;4.63;;
44862;SDS011;30597;49.628;10.850;2022-12-01T07:51:04;5.27;;;4.77;;
44862;SDS011;30597;49.628;10.850;2022-12-01T07:53:34;5.97;;;4.73;;
44862;SDS011;30597;49.628;10.850;2022-12-01T07:55:59;6.97;;;5.27;;
44862;SDS011;30597;49.628;10.850;2022-12-01T07:58:25;5.83;;;4.80;;
44862;SDS011;30597;49.628;10.850;2022-12-01T08:00:51;5.20;;;4.70;;
44862;SDS011;30597;49.628;10.850;2022-12-01T08:03:17;4.53;;;4.10;;
44862;SDS011;30597;49.628;10.850;2022-12-01T08:05:44;5.30;;;4.77;;
44862;SDS011;30597;49.628;10.850;2022-12-01T08:08:09;4.60;;;4.20;;
44862;SDS011;30597;49.628;10.850;2022-12-01T08:10:35;5.20;;;4.70;;
44862;SDS011;30597;49.628;10.850;2022-12-01T08:13:01;7.20;;;5.10;;
44862;SDS011;30597;49.628;10.850;2022-12-01T08:15:27;5.57;;;5.07;;
44862;SDS011;30597;49.628;10.850;2022-12-01T08:17:53;4.37;;;3.97;;
44862;SDS011;30597;49.628;10.850;2022-12-01T08:20:18;5.53;;;4.83;;
44862;SDS011;30597;49.628;10.850;2022-12-01T08:22:45;5.90;;;5.40;;
44862;SDS011;30597;49.628;10.850;2022-12-01T08:25:11;4.97;;;4.20;;
44862;SDS011;30597;49.628;10.850;2022-12-01T08:27:36;5.27;;;4.77;;
44862;SDS011;30597;49.628;10.850;2022-12-01T08:30:02;4.40;;;4.00;;
44862;SDS011;30597;49.628;10.850;2022-12-01T08:32:28;4.50;;;4.07;;
44862;SDS011;30597;49.628;10.850;2022-12-01T08:34:53;5.93;;;5.00;;
44862;SDS011;30597;49.628;10.850;2022-12-01T08:37:19;5.30;;;4.80;;
44862;SDS011;30597;49.628;10.850;2022-12-01T08:39:44;4.70;;;4.30;;
44862;SDS011;30597;49.628;10.850;2022-12-01T08:42:10;5.03;;;4.50;;
44862;SDS011;30597;49.628;10.850;2022-12-01T08:44:35;5.67;;;5.17;;
44862;SDS011;30597;49.628;10.850;2022-12-01T08:47:01;4.53;;;4.13;;
44862;SDS011;30597;49.628;10.850;2022-12-01T08:49:27;4.90;;;4.40;;
44862;SDS011;30597;49.628;10.850;2022-12-01T08:51:52;5.40;;;4.90;;
44862;SDS011;30597;49.628;10.850;2022-12-01T08:54:20;7.73;;;4.70;;
44862;SDS011;30597;49.628;10.850;2022-12-01T08:56:45;5.17;;;4.50;;
44862;SDS011;30597;49.628;10.850;2022-12-01T08:59:11;5.03;;;4.43;;
44862;SDS011;30597;49.628;10.850;2022-12-01T09:01:37;4.43;;;4.03;;
44862;SDS011;30597;49.628;10.850;2022-12-01T09:04:16;5.20;;;4.70;;
44862;SDS011;30597;49.628;10.850;2022-12-01T09:06:43;5.93;;;4.20;;
44862;SDS011;30597;49.628;10.850;2022-12-01T09:09:12;4.90;;;4.50;;
44862;SDS011;30597;49.628;10.850;2022-12-01T09:11:40;6.57;;;5.20;;
44862;SDS011;30597;49.628;10.850;2022-12-01T09:14:10;5.00;;;4.50;;
44862;SDS011;30597;49.628;10.850;2022-12-01T09:16:37;5.23;;;3.87;;
44862;SDS011;30597;49.628;10.850;2022-12-01T09:19:03;5.10;;;4.60;;
44862;SDS011;30597;49.628;10.850;2022-12-01T09:21:30;4.43;;;3.57;;
44862;SDS011;30597;49.628;10.850;2022-12-01T09:23:57;6.13;;;5.27;;
44862;SDS011;30597;49.628;10.850;2022-12-01T09:26:24;6.10;;;4.80;;
44862;SDS011;30597;49.628;10.850;2022-12-01T09:28:53;4.67;;;4.00;;
44862;SDS011;30597;49.628;10.850;2022-12-01T09:31:20;4.40;;;4.00;;
44862;SDS011;30597;49.628;10.850;2022-12-01T09:33:59;5.30;;;4.30;;
44862;SDS011;30597;49.628;10.850;2022-12-01T09:36:27;4.70;;;4.20;;
44862;SDS011;30597;49.628;10.850;2022-12-01T09:38:54;5.07;;;3.90;;
44862;SDS011;30597;49.628;10.850;2022-12-01T09:43:50;5.13;;;4.00;;
44862;SDS011;30597;49.628;10.850;2022-12-01T09:46:43;4.90;;;3.87;;
44862;SDS011;30597;49.628;10.850;2022-12-01T09:49:20;4.40;;;4.00;;
44862;SDS011;30597;49.628;10.850;2022-12-01T09:51:49;5.40;;;4.20;;
44862;SDS011;30597;49.628;10.850;2022-12-01T09:54:16;4.90;;;4.27;;
44862;SDS011;30597;49.628;10.850;2022-12-01T09:56:46;5.17;;;4.47;;
44862;SDS011;30597;49.628;10.850;2022-12-01T09:59:21;4.50;;;4.03;;
44862;SDS011;30597;49.628;10.850;2022-12-01T10:01:51;5.10;;;4.60;;
44862;SDS011;30597;49.628;10.850;2022-12-01T10:04:23;5.10;;;4.60;;
44862;SDS011;30597;49.628;10.850;2022-12-01T10:06:57;4.50;;;4.07;;
44862;SDS011;30597;49.628;10.850;2022-12-01T10:10:10;4.60;;;3.97;;
44862;SDS011;30597;49.628;10.850;2022-12-01T10:12:20;4.70;;;4.17;;
44862;SDS011;30597;49.628;10.850;2022-12-01T10:14:51;5.47;;;4.10;;
44862;SDS011;30597;49.628;10.850;2022-12-01T10:20:34;5.30;;;4.17;;
44862;SDS011;30597;49.628;10.850;2022-12-01T10:23:33;5.03;;;4.63;;
44862;SDS011;30597;49.628;10.850;2022-12-01T10:31:32;5.53;;;4.77;;
44862;SDS011;30597;49.628;10.850;2022-12-01T10:34:15;4.60;;;4.00;;
44862;SDS011;30597;49.628;10.850;2022-12-01T10:36:44;4.03;;;3.60;;
44862;SDS011;30597;49.628;10.850;2022-12-01T10:39:14;4.30;;;3.90;;
44862;SDS011;30597;49.628;10.850;2022-12-01T10:41:49;4.70;;;4.30;;
44862;SDS011;30597;49.628;10.850;2022-12-01T10:44:16;4.37;;;3.97;;
44862;SDS011;30597;49.628;10.850;2022-12-01T10:49:14;4.23;;;3.83;;
44862;SDS011;30597;49.628;10.850;2022-12-01T10:51:59;4.50;;;4.10;;
44862;SDS011;30597;49.628;10.850;2022-12-01T10:54:58;4.60;;;4.20;;
44862;SDS011;30597;49.628;10.850;2022-12-01T10:57:17;4.30;;;3.77;;
44862;SDS011;30597;49.628;10.850;2022-12-01T10:59:53;6.40;;;4.13;;
44862;SDS011;30597;49.628;10.850;2022-12-01T11:02:22;3.67;;;3.37;;
44862;SDS011;30597;49.628;10.850;2022-12-01T11:04:59;5.33;;;4.30;;
44862;SDS011;30597;49.628;10.850;2022-12-01T11:07:27;4.50;;;3.80;;
44862;SDS011;30597;49.628;10.850;2022-12-01T11:10:01;6.60;;;3.47;;
44862;SDS011;30597;49.628;10.850;2022-12-01T11:12:56;4.00;;;3.70;;
44862;SDS011;30597;49.628;10.850;2022-12-01T11:15:32;5.10;;;4.30;;
44862;SDS011;30597;49.628;10.850;2022-12-01T11:18:28;4.43;;;4.00;;
44862;SDS011;30597;49.628;10.850;2022-12-01T11:21:05;5.00;;;4.23;;
44862;SDS011;30597;49.628;10.850;2022-12-01T11:23:34;4.47;;;4.07;;
44862;SDS011;30597;49.628;10.850;2022-12-01T11:31:36;4.60;;;4.00;;
44862;SDS011;30597;49.628;10.850;2022-12-01T11:34:15;4.90;;;4.40;;
44862;SDS011;30597;49.628;10.850;2022-12-01T11:36:50;4.40;;;4.00;;
44862;SDS011;30597;49.628;10.850;2022-12-01T11:39:41;9.70;;;4.47;;
44862;SDS011;30597;49.628;10.850;2022-12-01T11:44:38;4.13;;;3.70;;
44862;SDS011;30597;49.628;10.850;2022-12-01T11:47:12;3.80;;;3.50;;
44862;SDS011;30597;49.628;10.850;2022-12-01T11:49:39;6.17;;;4.27;;
44862;SDS011;30597;49.628;10.850;2022-12-01T11:52:16;4.90;;;4.50;;
44862;SDS011;30597;49.628;10.850;2022-12-01T11:54:58;4.50;;;4.10;;
44862;SDS011;30597;49.628;10.850;2022-12-01T11:57:26;4.20;;;3.60;;
44862;SDS011;30597;49.628;10.850;2022-12-01T11:59:53;3.67;;;3.33;;
44862;SDS011;30597;49.628;10.850;2022-12-01T12:02:22;4.03;;;3.70;;
44862;SDS011;30597;49.628;10.850;2022-12-01T12:07:40;4.53;;;4.03;;
44862;SDS011;30597;49.628;10.850;2022-12-01T12:18:46;5.20;;;4.70;;
44862;SDS011;30597;49.628;10.850;2022-12-01T12:21:47;4.70;;;4.20;;
44862;SDS011;30597;49.628;10.850;2022-12-01T12:24:37;4.73;;;4.10;;
44862;SDS011;30597;49.628;10.850;2022-12-01T12:30:30;5.30;;;4.37;;
44862;SDS011;30597;49.628;10.850;2022-12-01T12:36:03;4.83;;;4.30;;
44862;SDS011;30597;49.628;10.850;2022-12-01T12:38:55;4.97;;;4.57;;
44862;SDS011;30597;49.628;10.850;2022-12-01T12:41:35;4.97;;;4.47;;
44862;SDS011;30597;49.628;10.850;2022-12-01T12:49:36;5.43;;;4.47;;
44862;SDS011;30597;49.628;10.850;2022-12-01T12:52:17;4.80;;;4.23;;
44862;SDS011;30597;49.628;10.850;2022-12-01T12:57:28;4.77;;;4.20;;
44862;SDS011;30597;49.628;10.850;2022-12-01T13:00:56;11.40;;;5.93;;
44862;SDS011;30597;49.628;10.850;2022-12-01T13:03:02;15.50;;;5.37;;
44862;SDS011;30597;49.628;10.850;2022-12-01T13:05:39;11.60;;;5.50;;
44862;SDS011;30597;49.628;10.850;2022-12-01T13:08:16;9.83;;;5.63;;
44862;SDS011;30597;49.628;10.850;2022-12-01T13:10:52;12.00;;;5.80;;
44862;SDS011;30597;49.628;10.850;2022-12-01T13:16:11;11.20;;;5.53;;
44862;SDS011;30597;49.628;10.850;2022-12-01T13:18:46;9.90;;;5.53;;
44862;SDS011;30597;49.628;10.850;2022-12-01T13:21:35;6.60;;;4.20;;
44862;SDS011;30597;49.628;10.850;2022-12-01T13:24:05;7.13;;;5.40;;
44862;SDS011;30597;49.628;10.850;2022-12-01T13:26:34;9.50;;;5.37;;
44862;SDS011;30597;49.628;10.850;2022-12-01T13:29:03;6.67;;;4.93;;
44862;SDS011;30597;49.628;10.850;2022-12-01T13:31:39;8.00;;;4.23;;
44862;SDS011;30597;49.628;10.850;2022-12-01T13:34:14;6.50;;;4.60;;
44862;SDS011;30597;49.628;10.850;2022-12-01T13:36:48;7.40;;;4.97;;
44862;SDS011;30597;49.628;10.850;2022-12-01T13:39:20;11.47;;;5.00;;
44862;SDS011;30597;49.628;10.850;2022-12-01T13:42:20;5.63;;;5.03;;
44862;SDS011;30597;49.628;10.850;2022-12-01T13:44:50;9.77;;;5.07;;
44862;SDS011;30597;49.628;10.850;2022-12-01T13:49:50;7.07;;;4.70;;
44862;SDS011;30597;49.628;10.850;2022-12-01T13:57:33;4.87;;;4.00;;
44862;SDS011;30597;49.628;10.850;2022-12-01T14:00:02;6.77;;;5.20;;
44862;SDS011;30597;49.628;10.850;2022-12-01T14:02:30;7.20;;;4.10;;
44862;SDS011;30597;49.628;10.850;2022-12-01T14:07:50;6.83;;;4.47;;
44862;SDS011;30597;49.628;10.850;2022-12-01T14:10:22;5.00;;;4.50;;
44862;SDS011;30597;49.628;10.850;2022-12-01T14:12:55;7.13;;;5.00;;
44862;SDS011;30597;49.628;10.850;2022-12-01T14:15:28;6.43;;;4.80;;
44862;SDS011;30597;49.628;10.850;2022-12-01T14:18:01;5.70;;;5.07;;
44862;SDS011;30597;49.628;10.850;2022-12-01T14:20:31;5.60;;;4.00;;
44862;SDS011;30597;49.628;10.850;2022-12-01T14:25:37;5.30;;;4.00;;
44862;SDS011;30597;49.628;10.850;2022-12-01T14:28:05;5.17;;;4.17;;
44862;SDS011;30597;49.628;10.850;2022-12-01T14:36:06;6.47;;;4.40;;
44862;SDS011;30597;49.628;10.850;2022-12-01T14:38:43;7.27;;;4.67;;
44862;SDS011;30597;49.628;10.850;2022-12-01T14:41:12;5.47;;;4.77;;
44862;SDS011;30597;49.628;10.850;2022-12-01T14:43:45;5.87;;;4.57;;
44862;SDS011;30597;49.628;10.850;2022-12-01T14:46:29;5.60;;;4.23;;
44862;SDS011;30597;49.628;10.850;2022-12-01T14:49:02;5.43;;;4.60;;
44862;SDS011;30597;49.628;10.850;2022-12-01T14:51:30;5.90;;;4.33;;
44862;SDS011;30597;49.628;10.850;2022-12-01T14:54:00;4.60;;;4.20;;
44862;SDS011;30597;49.628;10.850;2022-12-01T14:56:30;6.90;;;5.40;;
44862;SDS011;30597;49.628;10.850;2022-12-01T14:58:57;6.13;;;3.80;;
44862;SDS011;30597;49.628;10.850;2022-12-01T15:01:28;4.67;;;4.00;;
44862;SDS011;30597;49.628;10.850;2022-12-01T15:03:57;4.97;;;4.47;;
44862;SDS011;30597;49.628;10.850;2022-12-01T15:06:25;5.63;;;4.37;;
44862;SDS011;30597;49.628;10.850;2022-12-01T15:09:11;6.73;;;4.40;;
44862;SDS011;30597;49.628;10.850;2022-12-01T15:11:54;4.40;;;3.97;;
44862;SDS011;30597;49.628;10.850;2022-12-01T15:14:37;6.20;;;4.57;;
44862;SDS011;30597;49.628;10.850;2022-12-01T15:17:26;5.00;;;4.50;;
44862;SDS011;30597;49.628;10.850;2022-12-01T15:19:55;6.27;;;4.50;;
44862;SDS011;30597;49.628;10.850;2022-12-01T15:22:21;5.00;;;4.17;;
44862;SDS011;30597;49.628;10.850;2022-12-01T15:24:51;6.93;;;4.30;;
44862;SDS011;30597;49.628;10.850;2022-12-01T15:27:26;4.53;;;4.10;;
44862;SDS011;30597;49.628;10.850;2022-12-01T15:29:54;4.50;;;4.00;;
44862;SDS011;30597;49.628;10.850;2022-12-01T15:32:21;5.43;;;4.07;;
44862;SDS011;30597;49.628;10.850;2022-12-01T15:34:51;4.40;;;4.00;;
44862;SDS011;30597;49.628;10.850;2022-12-01T15:37:19;5.33;;;4.23;;
44862;SDS011;30597;49.628;10.850;2022-12-01T15:39:53;5.77;;;4.67;;
44862;SDS011;30597;49.628;10.850;2022-12-01T15:42:29;4.83;;;4.30;;
44862;SDS011;30597;49.628;10.850;2022-12-01T15:45:01;5.37;;;4.63;;
44862;SDS011;30597;49.628;10.850;2022-12-01T15:50:05;6.70;;;4.40;;
44862;SDS011;30597;49.628;10.850;2022-12-01T15:52:49;6.10;;;3.73;;
44862;SDS011;30597;49.628;10.850;2022-12-01T15:55:20;5.37;;;4.50;;
44862;SDS011;30597;49.628;10.850;2022-12-01T15:57:49;4.03;;;3.30;;
44862;SDS011;30597;49.628;10.850;2022-12-01T16:00:19;4.50;;;4.10;;
44862;SDS011;30597;49.628;10.850;2022-12-01T16:02:48;3.93;;;3.53;;
44862;SDS011;30597;49.628;10.850;2022-12-01T16:05:19;4.73;;;3.90;;
44862;SDS011;30597;49.628;10.850;2022-12-01T16:07:54;4.20;;;3.80;;
44862;SDS011;30597;49.628;10.850;2022-12-01T16:10:27;4.23;;;3.83;;
44862;SDS011;30597;49.628;10.850;2022-12-01T16:15:58;4.37;;;3.97;;
44862;SDS011;30597;49.628;10.850;2022-12-01T16:18:31;4.57;;;3.50;;
44862;SDS011;30597;49.628;10.850;2022-12-01T16:21:02;4.60;;;4.00;;
44862;SDS011;30597;49.628;10.850;2022-12-01T16:23:28;4.10;;;3.50;;
44862;SDS011;30597;49.628;10.850;2022-12-01T16:25:55;5.80;;;3.67;;
44862;SDS011;30597;49.628;10.850;2022-12-01T16:30:47;4.63;;;4.03;;
44862;SDS011;30597;49.628;10.850;2022-12-01T16:33:14;3.90;;;3.50;;
44862;SDS011;30597;49.628;10.850;2022-12-01T16:35:41;5.43;;;3.97;;
44862;SDS011;30597;49.628;10.850;2022-12-01T16:38:14;5.20;;;3.70;;
44862;SDS011;30597;49.628;10.850;2022-12-01T16:40:44;3.50;;;3.23;;